Time;durP1;ratioP1;P1;durP2;ratioP2;P2;SDS_P1;SDS_P2;PMS_P1;PMS_P2;Temp;Humidity;BMP_temperature;BMP_pressure;BME280_temperature;BME280_humidity;BME280_pressure;Samples;Min_cycle;Max_cycle;Signal;HPM_P1;HPM_P2
2023/04/10 00:00:42;;;;;;;11.07;5.82;;;15.30;76.80;;;;;;7386193;19;20009;-73
2023/04/10 00:03:11;;;;;;;11.02;6.07;;;15.30;76.90;;;;;;7384499;19;20091;-74
2023/04/10 00:05:40;;;;;;;11.50;6.15;;;15.30;76.90;;;;;;7405618;19;20508;-74
2023/04/10 00:08:08;;;;;;;10.27;5.85;;;15.30;77.00;;;;;;7382465;19;20312;-73
2023/04/10 00:10:37;;;;;;;12.15;6.22;;;15.30;77.00;;;;;;7382689;19;20019;-73
2023/04/10 00:13:06;;;;;;;13.25;6.75;;;15.30;76.90;;;;;;7382878;19;20024;-73
2023/04/10 00:15:37;;;;;;;15.07;7.03;;;15.30;76.80;;;;;;7382835;19;20014;-73
2023/04/10 00:18:06;;;;;;;13.50;6.35;;;15.30;76.70;;;;;;7381100;19;20264;-73
2023/04/10 00:20:34;;;;;;;12.45;6.72;;;15.30;76.90;;;;;;7404113;19;20032;-73
2023/04/10 00:23:03;;;;;;;13.93;6.75;;;15.20;77.00;;;;;;7380507;19;20003;-73
2023/04/10 00:25:32;;;;;;;16.05;6.47;;;15.10;77.00;;;;;;7382014;19;20014;-73
2023/04/10 00:28:00;;;;;;;9.63;6.50;;;15.10;77.20;;;;;;7380526;19;20006;-73
2023/04/10 00:30:29;;;;;;;12.75;7.22;;;15.10;77.30;;;;;;7382164;19;20003;-73
2023/04/10 00:33:01;;;;;;;11.48;6.32;;;15.10;77.50;;;;;;7403947;19;20003;-73
2023/04/10 00:35:29;;;;;;;12.10;7.15;;;15.00;77.50;;;;;;7380793;19;20055;-73
2023/04/10 00:37:58;;;;;;;17.13;8.05;;;15.00;77.90;;;;;;7380451;19;20048;-73
2023/04/10 00:40:29;;;;;;;12.23;6.90;;;15.00;78.00;;;;;;7382250;19;20016;-73
2023/04/10 00:42:57;;;;;;;14.20;6.72;;;15.00;78.00;;;;;;7381077;19;20300;-73
2023/04/10 00:45:26;;;;;;;10.27;6.07;;;15.00;77.90;;;;;;7379900;19;20007;-73
2023/04/10 00:47:55;;;;;;;9.40;5.97;;;15.00;77.70;;;;;;7402780;19;20027;-74
2023/04/10 00:50:27;;;;;;;13.27;6.63;;;15.00;77.70;;;;;;7380771;19;20011;-73
2023/04/10 00:52:56;;;;;;;17.08;7.15;;;15.00;77.70;;;;;;7380955;19;20044;-73
2023/04/10 00:55:25;;;;;;;10.38;6.82;;;15.00;77.90;;;;;;7380469;19;20007;-74
2023/04/10 00:57:56;;;;;;;16.52;7.03;;;15.00;77.90;;;;;;7381335;19;20358;-73
2023/04/10 01:00:25;;;;;;;12.57;6.90;;;15.00;78.00;;;;;;7379675;19;20389;-73
2023/04/10 01:02:53;;;;;;;11.07;6.95;;;15.00;77.90;;;;;;7401672;19;20054;-74
2023/04/10 01:05:22;;;;;;;12.10;7.10;;;14.90;77.80;;;;;;7379964;19;20303;-72
2023/04/10 01:08:08;;;;;;;9.98;6.30;;;14.90;78.00;;;;;;7380568;19;20010;-73
2023/04/10 01:10:46;;;;;;;12.93;7.05;;;14.90;78.10;;;;;;7380765;19;20024;-73
2023/04/10 01:13:24;;;;;;;12.10;7.10;;;14.90;78.10;;;;;;7380640;19;20362;-72
2023/04/10 01:15:59;;;;;;;9.90;6.60;;;15.00;78.20;;;;;;7381056;19;20297;-73
2023/04/10 01:18:33;;;;;;;10.93;6.47;;;15.00;78.10;;;;;;7379475;19;20119;-73
2023/04/10 01:21:04;;;;;;;13.57;6.82;;;15.00;78.00;;;;;;7380580;19;20083;-73
2023/04/10 01:24:00;;;;;;;11.13;6.63;;;15.00;78.00;;;;;;7400064;19;20358;-73
2023/04/10 01:26:43;;;;;;;10.38;6.75;;;15.00;78.20;;;;;;7380112;19;20122;-73
2023/04/10 01:29:19;;;;;;;12.32;7.10;;;14.90;78.30;;;;;;7379714;19;20369;-73
2023/04/10 01:31:54;;;;;;;10.52;6.45;;;15.00;78.30;;;;;;7380045;19;20007;-73
2023/04/10 01:34:26;;;;;;;14.35;7.25;;;14.90;78.30;;;;;;7380531;19;20100;-72
2023/04/10 01:37:00;;;;;;;12.15;6.10;;;14.90;78.40;;;;;;7380163;19;20092;-73
2023/04/10 01:39:30;;;;;;;11.30;6.43;;;14.90;78.50;;;;;;7378815;19;20002;-73
2023/04/10 01:42:01;;;;;;;12.10;6.78;;;14.90;78.60;;;;;;7401811;19;20014;-73
2023/04/10 01:44:34;;;;;;;10.53;6.47;;;14.90;78.50;;;;;;7379394;19;20062;-73
2023/04/10 01:47:04;;;;;;;15.05;7.03;;;14.90;78.60;;;;;;7381704;19;20013;-72
2023/04/10 01:49:34;;;;;;;10.25;6.70;;;14.90;78.40;;;;;;7380626;19;20003;-73
2023/04/10 01:52:03;;;;;;;12.63;6.47;;;14.90;78.40;;;;;;7383018;19;20054;-72
2023/04/10 01:54:34;;;;;;;15.52;6.43;;;14.90;78.60;;;;;;7383992;19;20027;-74
2023/04/10 01:57:03;;;;;;;11.20;6.88;;;14.90;78.40;;;;;;7384703;19;20346;-72
2023/04/10 01:59:35;;;;;;;15.93;7.70;;;14.80;78.30;;;;;;7401775;19;20021;-72
2023/04/10 02:02:06;;;;;;;12.57;7.38;;;14.80;78.40;;;;;;7378883;19;20074;-72
2023/04/10 02:04:35;;;;;;;11.80;7.68;;;14.70;78.40;;;;;;7378470;19;20062;-72
2023/04/10 02:07:07;;;;;;;10.85;6.63;;;14.70;78.60;;;;;;7379600;19;20024;-72
2023/04/10 02:09:46;;;;;;;12.77;6.95;;;14.70;78.70;;;;;;7379304;19;20066;-72
2023/04/10 02:12:20;;;;;;;12.75;6.47;;;14.70;78.80;;;;;;7377415;19;20007;-72
2023/04/10 02:14:54;;;;;;;11.10;6.97;;;14.70;78.70;;;;;;7398510;19;20013;-72
2023/04/10 02:17:30;;;;;;;12.02;6.95;;;14.70;78.70;;;;;;7377537;19;20003;-73
2023/04/10 02:19:59;;;;;;;10.70;6.55;;;14.70;78.60;;;;;;7378742;19;20294;-73
2023/04/10 02:22:29;;;;;;;15.93;7.40;;;14.70;78.60;;;;;;7379634;19;20379;-73
2023/04/10 02:24:59;;;;;;;12.15;7.25;;;14.70;78.70;;;;;;7380275;19;20080;-73
2023/04/10 02:27:31;;;;;;;11.07;7.40;;;14.70;78.80;;;;;;7377552;19;20010;-73
2023/04/10 02:30:03;;;;;;;10.48;6.78;;;14.60;78.80;;;;;;7393365;19;20375;-73
2023/04/10 02:32:33;;;;;;;13.00;6.47;;;14.60;79.00;;;;;;7399795;19;20014;-74
2023/04/10 02:35:02;;;;;;;9.60;6.28;;;14.60;79.10;;;;;;7378465;19;20386;-74
2023/04/10 02:37:35;;;;;;;10.48;6.85;;;14.60;79.10;;;;;;7379222;19;20003;-74
2023/04/10 02:40:03;;;;;;;9.10;6.35;;;14.70;79.00;;;;;;7379543;19;20299;-74
2023/04/10 02:42:34;;;;;;;14.23;7.70;;;14.70;79.60;;;;;;7379177;19;20575;-75
2023/04/10 02:45:06;;;;;;;8.70;6.07;;;14.70;78.90;;;;;;7378645;19;20082;-73
2023/04/10 02:47:35;;;;;;;15.93;6.95;;;14.70;78.90;;;;;;7400072;19;20016;-75
2023/04/10 02:50:04;;;;;;;9.50;6.13;;;14.70;79.00;;;;;;7377439;19;20019;-73
2023/04/10 02:52:32;;;;;;;10.65;6.35;;;14.60;79.00;;;;;;7377911;19;20318;-74
2023/04/10 02:55:01;;;;;;;13.05;6.93;;;14.70;79.10;;;;;;7377998;19;20003;-75
2023/04/10 02:57:30;;;;;;;10.20;6.47;;;14.60;79.00;;;;;;7377596;19;20382;-74
2023/04/10 02:59:59;;;;;;;14.02;7.20;;;14.60;79.00;;;;;;7399742;19;20579;-74
2023/04/10 03:02:30;;;;;;;11.30;7.20;;;14.60;79.10;;;;;;7384434;19;20010;-74
2023/04/10 03:04:59;;;;;;;13.52;6.70;;;14.60;79.20;;;;;;7384261;19;20019;-73
2023/04/10 03:07:28;;;;;;;9.07;6.75;;;14.60;79.30;;;;;;7384842;19;20007;-74
2023/04/10 03:09:56;;;;;;;11.63;7.28;;;14.60;79.30;;;;;;7384621;19;20066;-74
2023/04/10 03:12:25;;;;;;;14.25;6.93;;;14.60;79.30;;;;;;7384531;19;20015;-73
2023/04/10 03:14:54;;;;;;;12.05;6.85;;;14.50;79.30;;;;;;7403004;19;20272;-73
2023/04/10 03:17:23;;;;;;;10.48;6.18;;;14.50;79.20;;;;;;7382762;19;20011;-74
2023/04/10 03:19:54;;;;;;;10.93;6.15;;;14.50;79.00;;;;;;7383285;19;20010;-73
2023/04/10 03:22:23;;;;;;;13.98;6.95;;;14.50;78.90;;;;;;7384965;19;20023;-73
2023/04/10 03:24:51;;;;;;;10.68;6.65;;;14.40;79.10;;;;;;7382627;19;20777;-73
2023/04/10 03:27:20;;;;;;;11.07;6.60;;;14.40;79.00;;;;;;7384685;19;20023;-73
2023/04/10 03:29:49;;;;;;;15.98;6.28;;;14.40;79.10;;;;;;7405845;19;20011;-73
2023/04/10 03:32:18;;;;;;;13.27;6.38;;;14.40;79.10;;;;;;7383712;19;20007;-73
2023/04/10 03:34:46;;;;;;;12.05;6.75;;;14.40;79.00;;;;;;7385399;19;20006;-73
2023/04/10 03:37:18;;;;;;;12.80;6.50;;;14.40;79.00;;;;;;7385128;19;20006;-73
2023/04/10 03:39:47;;;;;;;8.32;5.90;;;14.40;78.80;;;;;;7386185;19;19998;-73
2023/04/10 03:42:15;;;;;;;9.90;6.50;;;14.40;78.80;;;;;;7386876;19;20006;-73
2023/04/10 03:44:44;;;;;;;9.45;6.00;;;14.40;79.40;;;;;;7404268;19;20014;-74
2023/04/10 03:47:13;;;;;;;9.82;6.47;;;14.40;78.70;;;;;;7383250;19;20247;-74
2023/04/10 03:49:41;;;;;;;8.25;6.03;;;14.30;78.80;;;;;;7382452;19;20312;-73
2023/04/10 03:52:10;;;;;;;12.10;6.85;;;14.30;78.90;;;;;;7382218;19;20006;-72
2023/04/10 03:54:41;;;;;;;13.60;6.45;;;14.30;79.00;;;;;;7383245;19;20013;-73
2023/04/10 03:57:10;;;;;;;8.05;5.88;;;14.30;79.10;;;;;;7381757;19;20346;-73
2023/04/10 03:59:39;;;;;;;10.07;6.18;;;14.30;79.00;;;;;;7404531;19;20011;-73
2023/04/10 04:02:09;;;;;;;11.57;6.25;;;14.30;79.00;;;;;;7382535;19;19998;-73
2023/04/10 04:04:38;;;;;;;9.82;6.72;;;14.20;79.00;;;;;;7382750;19;19999;-73
2023/04/10 04:07:11;;;;;;;12.38;6.57;;;14.20;79.10;;;;;;7382802;19;20074;-72
2023/04/10 04:09:42;;;;;;;12.80;6.40;;;14.20;79.10;;;;;;7382571;19;20393;-73
2023/04/10 04:12:11;;;;;;;11.00;7.05;;;14.20;79.20;;;;;;7380457;19;20018;-73
2023/04/10 04:14:40;;;;;;;9.93;6.22;;;14.20;79.30;;;;;;7403588;19;20366;-73
2023/04/10 04:17:08;;;;;;;13.30;7.22;;;14.20;79.30;;;;;;7381433;19;20347;-73
2023/04/10 04:19:37;;;;;;;13.20;6.70;;;14.20;79.10;;;;;;7382530;19;20414;-73
2023/04/10 04:22:06;;;;;;;10.70;6.00;;;14.20;79.10;;;;;;7381116;19;20011;-73
2023/04/10 04:24:34;;;;;;;15.77;6.65;;;14.10;79.00;;;;;;7381467;19;20062;-72
2023/04/10 04:27:06;;;;;;;10.35;6.03;;;14.10;79.00;;;;;;7382157;19;20026;-72
2023/04/10 04:29:34;;;;;;;12.15;6.55;;;14.10;79.30;;;;;;7403584;19;20015;-73
2023/04/10 04:32:03;;;;;;;10.52;6.20;;;14.10;79.40;;;;;;7381349;19;20010;-73
2023/04/10 04:34:32;;;;;;;12.63;6.65;;;14.10;79.30;;;;;;7381900;19;20002;-73
2023/04/10 04:37:01;;;;;;;9.40;6.40;;;14.10;79.50;;;;;;7380502;19;20007;-72
2023/04/10 04:39:30;;;;;;;12.45;6.40;;;14.10;79.70;;;;;;7381655;19;20002;-72
2023/04/10 04:42:00;;;;;;;10.45;6.80;;;14.10;79.40;;;;;;7404622;19;20011;-72
2023/04/10 04:44:31;;;;;;;12.25;6.15;;;14.10;79.30;;;;;;7380006;19;20027;-72
2023/04/10 04:47:00;;;;;;;10.07;6.15;;;14.10;79.20;;;;;;7381148;19;20058;-73
2023/04/10 04:49:28;;;;;;;11.75;6.53;;;14.10;79.40;;;;;;7380673;19;20027;-73
2023/04/10 04:51:57;;;;;;;12.35;6.63;;;14.10;79.40;;;;;;7381163;19;20032;-72
2023/04/10 04:54:26;;;;;;;9.98;6.57;;;14.10;79.40;;;;;;7382036;19;20320;-72
2023/04/10 04:56:54;;;;;;;24.60;6.07;;;14.00;79.40;;;;;;7400798;19;20063;-73
2023/04/10 04:59:23;;;;;;;11.25;6.50;;;14.00;79.60;;;;;;7380398;19;20062;-72
2023/04/10 05:01:54;;;;;;;10.07;6.43;;;13.90;79.90;;;;;;7380215;19;20066;-72
2023/04/10 05:04:23;;;;;;;12.52;6.55;;;13.90;80.10;;;;;;7380591;19;20014;-72
2023/04/10 05:06:52;;;;;;;10.88;6.57;;;13.90;80.30;;;;;;7379847;19;20010;-74
2023/04/10 05:09:21;;;;;;;8.98;6.47;;;13.90;80.40;;;;;;7381413;19;20000;-73
2023/04/10 05:11:50;;;;;;;11.18;6.57;;;13.90;80.20;;;;;;7402422;19;20010;-73
2023/04/10 05:14:18;;;;;;;11.88;6.80;;;13.90;80.20;;;;;;7380245;19;19999;-73
2023/04/10 05:16:47;;;;;;;11.55;6.53;;;13.90;80.10;;;;;;7379599;19;20058;-73
2023/04/10 05:19:18;;;;;;;10.80;6.75;;;13.90;80.10;;;;;;7380980;19;20015;-73
2023/04/10 05:21:47;;;;;;;12.15;6.22;;;13.90;80.10;;;;;;7380988;19;20003;-73
2023/04/10 05:24:16;;;;;;;10.45;6.25;;;13.90;79.90;;;;;;7381616;19;20473;-73
2023/04/10 05:26:44;;;;;;;9.63;6.18;;;14.00;80.00;;;;;;7404482;19;20018;-73
2023/04/10 05:29:13;;;;;;;9.82;6.03;;;14.00;80.00;;;;;;7381521;19;20268;-72
2023/04/10 05:31:42;;;;;;;9.95;6.00;;;14.00;80.20;;;;;;7380060;19;20002;-74
2023/04/10 05:34:10;;;;;;;9.95;6.20;;;14.00;80.20;;;;;;7380236;19;20417;-72
2023/04/10 05:36:42;;;;;;;10.52;6.47;;;13.90;80.10;;;;;;7380334;19;20006;-73
2023/04/10 05:39:10;;;;;;;9.82;6.05;;;14.00;80.30;;;;;;7378700;19;20121;-72
2023/04/10 05:41:39;;;;;;;14.75;6.50;;;14.00;80.50;;;;;;7399458;19;20028;-72
2023/04/10 05:44:08;;;;;;;11.52;6.47;;;14.00;80.40;;;;;;7378496;19;20070;-73
2023/04/10 05:46:36;;;;;;;8.25;6.05;;;14.10;80.50;;;;;;7379381;19;20002;-72
2023/04/10 05:49:05;;;;;;;10.02;6.25;;;14.10;80.40;;;;;;7379767;19;20003;-73
2023/04/10 05:51:34;;;;;;;15.70;7.00;;;14.10;80.40;;;;;;7377874;19;20481;-73
2023/04/10 05:54:05;;;;;;;10.98;6.93;;;14.10;80.30;;;;;;7379363;19;20010;-72
2023/04/10 05:56:34;;;;;;;12.82;6.78;;;14.10;80.40;;;;;;7401421;19;20019;-73
2023/04/10 05:59:03;;;;;;;10.75;6.70;;;14.10;80.40;;;;;;7378600;19;20429;-73
2023/04/10 06:01:31;;;;;;;12.18;7.10;;;14.10;80.30;;;;;;7378563;19;20014;-73
2023/04/10 06:04:01;;;;;;;11.13;6.80;;;14.10;80.50;;;;;;7378914;19;20011;-73
2023/04/10 06:06:30;;;;;;;11.23;6.80;;;14.10;81.40;;;;;;7378194;19;20007;-73
2023/04/10 06:08:59;;;;;;;12.07;6.75;;;14.20;80.70;;;;;;7399201;19;20006;-73
2023/04/10 06:11:30;;;;;;;10.77;6.90;;;14.20;80.70;;;;;;7379252;19;20071;-73
2023/04/10 06:13:59;;;;;;;13.75;6.72;;;14.20;80.80;;;;;;7378459;19;20095;-73
2023/04/10 06:16:28;;;;;;;14.68;6.72;;;14.30;80.70;;;;;;7379295;19;20329;-73
2023/04/10 06:18:56;;;;;;;9.25;6.90;;;14.30;80.60;;;;;;7377769;19;20010;-73
2023/04/10 06:21:25;;;;;;;12.32;7.00;;;14.40;80.80;;;;;;7378733;19;20015;-73
2023/04/10 06:23:54;;;;;;;14.15;6.80;;;14.40;80.90;;;;;;7399988;19;20015;-73
2023/04/10 06:26:22;;;;;;;9.00;6.32;;;14.50;80.70;;;;;;7377827;19;20015;-72
2023/04/10 06:28:54;;;;;;;14.13;7.03;;;14.50;80.60;;;;;;7377966;19;20234;-74
2023/04/10 06:31:23;;;;;;;12.00;6.63;;;14.50;80.30;;;;;;7378962;19;20062;-72
2023/04/10 06:33:52;;;;;;;13.07;6.65;;;14.60;80.00;;;;;;7377502;19;20010;-73
2023/04/10 06:36:21;;;;;;;15.25;7.60;;;14.60;79.90;;;;;;7386249;19;20070;-73
2023/04/10 06:38:49;;;;;;;10.25;6.45;;;14.60;79.90;;;;;;7406804;19;20003;-73
2023/04/10 06:41:18;;;;;;;12.13;7.55;;;14.70;79.90;;;;;;7385148;19;20303;-73
2023/04/10 06:43:47;;;;;;;13.52;7.60;;;14.70;79.90;;;;;;7384549;19;20027;-73
2023/04/10 06:46:18;;;;;;;18.25;7.38;;;14.80;79.90;;;;;;7385834;19;20009;-73
2023/04/10 06:48:47;;;;;;;15.93;8.02;;;14.90;79.70;;;;;;7384505;19;20062;-73
2023/04/10 06:51:16;;;;;;;16.05;8.02;;;15.00;79.80;;;;;;7385559;19;20376;-73
2023/04/10 06:53:45;;;;;;;11.48;7.10;;;15.00;80.00;;;;;;7404206;19;20007;-73
2023/04/10 06:56:15;;;;;;;14.15;7.43;;;15.10;80.10;;;;;;7384849;19;20044;-73
2023/04/10 06:58:44;;;;;;;8.90;6.97;;;15.10;80.10;;;;;;7384062;19;20032;-74
2023/04/10 07:01:13;;;;;;;15.77;7.90;;;15.20;80.30;;;;;;7383855;19;20003;-73
2023/04/10 07:03:44;;;;;;;12.43;8.02;;;15.20;80.70;;;;;;7386289;19;20023;-72
2023/04/10 07:06:13;;;;;;;15.05;8.20;;;15.20;81.10;;;;;;7383344;19;20738;-72
2023/04/10 07:08:42;;;;;;;12.82;8.15;;;15.30;81.20;;;;;;7404192;19;20035;-73
2023/04/10 07:11:11;;;;;;;18.88;8.23;;;15.30;81.10;;;;;;7385131;19;20052;-73
2023/04/10 07:13:39;;;;;;;12.82;7.65;;;15.40;81.10;;;;;;7383367;19;20433;-73
2023/04/10 07:16:09;;;;;;;13.35;7.32;;;15.40;80.80;;;;;;7384731;19;20027;-73
2023/04/10 07:18:40;;;;;;;12.50;7.47;;;15.50;80.80;;;;;;7382606;19;20007;-73
2023/04/10 07:21:14;;;;;;;10.95;7.40;;;15.50;80.50;;;;;;7384426;19;20007;-73
2023/04/10 07:23:48;;;;;;;11.70;7.20;;;15.50;80.30;;;;;;7408040;19;20006;-73
2023/04/10 07:26:17;;;;;;;14.00;7.15;;;15.60;80.30;;;;;;7383920;19;20011;-73
2023/04/10 07:28:45;;;;;;;11.65;6.80;;;15.70;80.00;;;;;;7383468;19;20260;-72
2023/04/10 07:31:16;;;;;;;13.48;7.00;;;15.80;79.70;;;;;;7384278;19;20056;-72
2023/04/10 07:33:45;;;;;;;9.70;6.47;;;15.90;79.70;;;;;;7384535;19;20006;-72
2023/04/10 07:36:16;;;;;;;10.52;6.32;;;15.90;79.30;;;;;;7384794;19;20338;-73
2023/04/10 07:38:45;;;;;;;11.00;6.28;;;15.90;79.10;;;;;;7405573;19;20027;-72
2023/04/10 07:41:14;;;;;;;12.35;7.22;;;16.00;78.80;;;;;;7382737;19;20386;-72
2023/04/10 07:43:43;;;;;;;10.15;6.22;;;16.10;78.70;;;;;;7383267;19;20003;-72
2023/04/10 07:46:11;;;;;;;11.30;6.18;;;16.20;78.30;;;;;;7382358;19;20006;-72
2023/04/10 07:48:40;;;;;;;12.35;6.00;;;16.30;78.00;;;;;;7383217;19;20067;-72
2023/04/10 07:51:10;;;;;;;8.88;5.60;;;16.30;77.70;;;;;;7383740;19;20011;-74
2023/04/10 07:53:42;;;;;;;9.43;5.93;;;16.30;77.10;;;;;;7402859;19;20098;-74
2023/04/10 07:56:17;;;;;;;11.10;5.70;;;16.40;77.00;;;;;;7383482;19;20362;-73
2023/04/10 07:58:46;;;;;;;8.45;5.80;;;16.50;76.90;;;;;;7382769;19;20066;-72
2023/04/10 08:01:15;;;;;;;9.07;5.65;;;16.50;76.60;;;;;;7382218;19;20011;-72
2023/04/10 08:03:46;;;;;;;9.10;5.15;;;16.60;76.70;;;;;;7380805;19;20010;-73
2023/04/10 08:06:14;;;;;;;8.15;5.28;;;16.70;76.60;;;;;;7381312;19;20007;-73
2023/04/10 08:08:46;;;;;;;10.18;6.05;;;16.80;75.80;;;;;;7403470;19;20011;-74
2023/04/10 08:11:26;;;;;;;6.63;5.15;;;16.80;75.70;;;;;;7381597;19;20066;-73
2023/04/10 08:13:55;;;;;;;9.40;4.88;;;16.80;75.00;;;;;;7381532;19;20081;-72
2023/04/10 08:16:26;;;;;;;7.78;5.20;;;16.80;75.10;;;;;;7382131;19;20024;-73
2023/04/10 08:18:56;;;;;;;9.88;4.45;;;16.80;75.40;;;;;;7381563;19;20321;-74
2023/04/10 08:21:26;;;;;;;5.88;3.83;;;16.90;74.70;;;;;;7382733;19;20072;-73
2023/04/10 08:23:58;;;;;;;5.85;4.22;;;16.90;74.00;;;;;;7402977;19;20031;-73
2023/04/10 08:26:28;;;;;;;7.63;4.60;;;16.90;73.50;;;;;;7379426;19;20016;-72
2023/04/10 08:28:59;;;;;;;6.15;4.15;;;16.80;73.00;;;;;;7380869;19;20026;-72
2023/04/10 08:31:29;;;;;;;5.43;3.63;;;16.90;73.30;;;;;;7381814;19;20064;-73
2023/04/10 08:33:58;;;;;;;7.82;4.10;;;17.00;73.30;;;;;;7382153;19;20023;-72
2023/04/10 08:36:27;;;;;;;6.72;4.00;;;16.90;73.60;;;;;;7379697;19;20006;-72
2023/04/10 08:38:58;;;;;;;8.02;4.07;;;17.00;74.30;;;;;;7400731;19;20241;-73
2023/04/10 08:41:27;;;;;;;10.32;4.13;;;17.00;74.50;;;;;;7382072;19;20069;-73
2023/04/10 08:43:55;;;;;;;6.20;4.25;;;17.00;74.40;;;;;;7381357;19;20010;-72
2023/04/10 08:46:26;;;;;;;5.28;3.70;;;17.10;74.40;;;;;;7381481;19;20031;-73
2023/04/10 08:49:00;;;;;;;6.60;4.00;;;17.00;73.90;;;;;;7382396;19;20010;-73
2023/04/10 08:51:35;;;;;;;9.80;4.07;;;17.00;74.50;;;;;;7379697;19;20165;-73
2023/04/10 08:54:09;;;;;;;7.00;3.90;;;17.00;74.80;;;;;;7380549;19;20732;-73
2023/04/10 08:56:40;;;;;;;4.72;3.88;;;17.00;76.80;;;;;;7402081;19;20007;-73
2023/04/10 08:59:10;;;;;;;8.93;3.85;;;17.10;76.70;;;;;;7379937;19;20062;-72
2023/04/10 09:01:41;;;;;;;7.10;3.85;;;17.10;75.80;;;;;;7380526;19;20007;-73
2023/04/10 09:04:13;;;;;;;4.60;3.67;;;17.20;76.80;;;;;;7380946;19;20078;-75
2023/04/10 09:06:41;;;;;;;6.22;4.22;;;17.20;77.10;;;;;;7379982;19;20048;-75
2023/04/10 09:09:13;;;;;;;6.88;4.35;;;17.20;77.70;;;;;;7380590;19;20024;-75
2023/04/10 09:12:04;;;;;;;6.57;4.45;;;17.20;77.50;;;;;;7402072;19;20003;-76
2023/04/10 09:14:34;;;;;;;7.78;4.15;;;17.20;78.30;;;;;;7380265;19;20011;-75
2023/04/10 09:17:15;;;;;;;11.75;4.85;;;17.30;77.20;;;;;;7379237;19;20701;-76
2023/04/10 09:19:45;;;;;;;6.63;4.63;;;17.20;77.50;;;;;;7382463;19;20031;-75
2023/04/10 09:22:15;;;;;;;9.32;4.88;;;17.30;77.80;;;;;;7382329;19;20023;-77
2023/04/10 09:24:48;;;;;;;8.63;5.45;;;17.30;78.10;;;;;;7379038;19;20031;-76
2023/04/10 09:27:33;;;;;;;8.63;5.30;;;17.40;77.80;;;;;;7378498;19;20027;-77
2023/04/10 09:30:03;;;;;;;9.63;5.32;;;17.40;77.00;;;;;;7378164;19;20003;-76
2023/04/10 09:32:40;;;;;;;10.98;5.57;;;17.50;76.00;;;;;;7401745;19;20694;-76
2023/04/10 09:35:11;;;;;;;5.82;4.07;;;17.50;75.90;;;;;;7379579;19;20002;-75
2023/04/10 09:37:41;;;;;;;6.53;4.25;;;17.70;75.90;;;;;;7379308;19;20235;-75
2023/04/10 09:40:23;;;;;;;5.38;3.90;;;17.70;75.70;;;;;;7380237;19;20366;-78
2023/04/10 09:42:51;;;;;;;;;;;17.70;76.90;;;;;;7380305;19;20074;-75
2023/04/10 09:45:21;;;;;;;10.63;4.03;;;17.90;76.60;;;;;;7379525;19;20183;-74
2023/04/10 09:48:07;;;;;;;7.65;4.50;;;18.00;75.50;;;;;;7399496;19;20102;-74
2023/04/10 09:50:41;;;;;;;6.25;4.25;;;17.90;76.20;;;;;;7378345;19;20247;-76
2023/04/10 09:53:10;;;;;;;7.07;4.47;;;18.00;76.10;;;;;;7379526;19;20624;-76
2023/04/10 09:55:43;;;;;;;6.03;3.83;;;18.00;74.90;;;;;;7379300;19;20014;-74
2023/04/10 09:58:13;;;;;;;9.13;4.15;;;18.00;74.90;;;;;;7379379;19;20002;-76
2023/04/10 10:00:43;;;;;;;5.45;3.90;;;18.00;75.20;;;;;;7379160;19;20024;-75
2023/04/10 10:03:17;;;;;;;8.48;4.03;;;18.00;74.70;;;;;;7378686;19;20006;-77
2023/04/10 10:05:47;;;;;;;6.65;4.03;;;18.00;74.00;;;;;;7403048;19;20367;-76
2023/04/10 10:08:18;;;;;;;5.07;3.72;;;18.00;73.80;;;;;;7379210;19;20370;-76
2023/04/10 10:10:52;;;;;;;6.47;3.90;;;17.90;74.40;;;;;;7377539;19;20002;-75
2023/04/10 10:13:26;;;;;;;7.43;3.30;;;18.00;73.60;;;;;;7378688;19;20003;-74
2023/04/10 10:16:03;;;;;;;6.55;4.00;;;17.70;72.30;;;;;;7379815;19;20017;-74
2023/04/10 10:18:41;;;;;;;6.65;3.60;;;17.70;72.70;;;;;;7379721;19;20010;-74
2023/04/10 10:21:11;;;;;;;6.07;3.60;;;17.80;74.00;;;;;;7382453;19;20006;-75
2023/04/10 10:23:41;;;;;;;4.43;3.17;;;18.00;73.10;;;;;;7404110;19;20015;-77
2023/04/10 10:26:14;;;;;;;6.10;3.65;;;18.00;72.60;;;;;;7381786;19;20031;-75
2023/04/10 10:28:44;;;;;;;4.03;3.17;;;18.00;72.20;;;;;;7384534;19;20007;-75
2023/04/10 10:31:13;;;;;;;5.63;3.03;;;18.10;71.60;;;;;;7381544;19;20018;-75
2023/04/10 10:33:42;;;;;;;7.15;3.90;;;18.00;71.60;;;;;;7378880;19;20011;-75
2023/04/10 10:36:12;;;;;;;8.02;3.97;;;18.00;71.60;;;;;;7378464;19;20003;-76
2023/04/10 10:38:45;;;;;;;17.08;5.55;;;18.00;70.80;;;;;;7398702;19;20058;-75
2023/04/10 10:41:25;;;;;;;10.40;5.22;;;18.10;71.10;;;;;;7378753;19;20007;-75
2023/04/10 10:43:57;;;;;;;8.90;4.05;;;18.10;71.80;;;;;;7377730;19;20116;-77
2023/04/10 10:46:37;;;;;;;3.95;3.05;;;18.20;70.70;;;;;;7376631;19;20024;-76
2023/04/10 10:49:06;;;;;;;4.60;2.83;;;18.10;69.40;;;;;;7377803;19;20019;-77
2023/04/10 10:51:49;;;;;;;9.15;4.47;;;18.20;70.10;;;;;;7377455;19;20069;-75
2023/04/10 10:54:33;;;;;;;5.57;3.70;;;18.10;69.60;;;;;;7378337;19;20007;-77
2023/04/10 10:57:08;;;;;;;5.55;3.35;;;18.10;69.40;;;;;;7386956;19;20007;-77
2023/04/10 11:00:02;;;;;;;5.63;3.33;;;18.20;69.90;;;;;;7404273;19;20058;-77
2023/04/10 11:02:30;;;;;;;5.55;3.35;;;18.20;69.00;;;;;;7377369;19;20029;-76
2023/04/10 11:04:59;;;;;;;7.40;3.53;;;18.40;69.10;;;;;;7378378;19;20003;-77
2023/04/10 11:08:14;;;;;;;19.00;4.63;;;18.40;68.30;;;;;;7376813;19;20024;-76
2023/04/10 11:11:01;;;;;;;3.35;2.58;;;18.20;68.10;;;;;;7376885;19;20017;-76
2023/04/10 11:13:33;;;;;;;4.88;2.50;;;18.20;67.50;;;;;;7376086;19;20248;-77
2023/04/10 11:16:03;;;;;;;3.58;2.55;;;18.40;68.10;;;;;;7379562;19;20394;-75
2023/04/10 11:19:07;;;;;;;5.20;2.77;;;18.40;67.80;;;;;;7375142;19;20228;-75
2023/04/10 11:21:45;;;;;;;4.65;2.55;;;18.40;66.30;;;;;;7382537;19;20240;-78
2023/04/10 11:24:15;;;;;;;3.75;2.45;;;18.40;66.30;;;;;;7381253;19;20008;-74
2023/04/10 11:26:45;;;;;;;3.50;2.47;;;18.60;66.50;;;;;;7403726;19;20054;-76
2023/04/10 11:32:48;;;;;;;7.70;2.70;;;18.30;65.70;;;;;;7384983;19;20414;-73
2023/04/10 11:38:18;;;;;;;4.38;2.45;;;18.10;67.10;;;;;;7386891;19;20037;-79
2023/04/10 11:41:13;;;;;;;3.20;2.70;;;18.30;67.10;;;;;;7388031;19;20006;-85
2023/04/10 11:43:41;;;;;;;5.20;3.15;;;18.10;66.70;;;;;;7386105;19;20066;-76
2023/04/10 11:46:10;;;;;;;4.80;3.20;;;18.20;69.10;;;;;;7383422;19;20003;-77
2023/04/10 11:48:50;;;;;;;7.10;3.20;;;18.30;70.20;;;;;;7387578;19;20002;-78
2023/04/10 11:51:19;;;;;;;4.15;2.88;;;18.30;70.50;;;;;;7381734;19;20027;-75
2023/04/10 11:53:53;;;;;;;4.35;2.83;;;18.30;69.50;;;;;;7413561;19;20030;-79
2023/04/10 11:56:23;;;;;;;5.47;3.15;;;18.20;69.80;;;;;;7390686;19;20034;-76
2023/04/10 11:58:53;;;;;;;4.35;2.90;;;18.20;69.30;;;;;;7386866;19;19998;-75
2023/04/10 12:01:23;;;;;;;8.18;2.88;;;18.20;69.50;;;;;;7382485;19;20350;-73
2023/04/10 12:03:55;;;;;;;7.65;3.50;;;18.00;69.10;;;;;;7383746;19;20690;-78
2023/04/10 12:06:24;;;;;;;4.43;2.80;;;18.00;68.80;;;;;;7383507;19;20047;-74
2023/04/10 12:08:56;;;;;;;5.97;2.55;;;17.80;69.00;;;;;;7405430;19;20006;-79
2023/04/10 12:11:28;;;;;;;6.78;3.10;;;18.00;69.40;;;;;;7386271;19;20006;-78
2023/04/10 12:14:01;;;;;;;4.55;2.70;;;18.10;69.50;;;;;;7383176;19;19998;-80
2023/04/10 12:16:34;;;;;;;4.03;2.70;;;18.10;69.10;;;;;;7385070;19;20014;-79
2023/04/10 12:19:07;;;;;;;5.63;3.08;;;17.90;69.10;;;;;;7384516;19;20007;-78
2023/04/10 12:21:38;;;;;;;3.63;2.75;;;17.70;69.70;;;;;;7385168;19;20111;-78
2023/04/10 12:24:09;;;;;;;11.00;3.37;;;17.70;70.80;;;;;;7385132;19;20007;-78
2023/04/10 12:26:38;;;;;;;6.45;3.30;;;17.90;70.20;;;;;;7407902;19;20304;-79
2023/04/10 12:29:08;;;;;;;8.40;4.72;;;17.80;70.50;;;;;;7382750;19;20026;-78
2023/04/10 12:31:39;;;;;;;5.22;3.08;;;17.70;70.90;;;;;;7383245;19;20017;-78
2023/04/10 12:34:12;;;;;;;3.97;2.70;;;17.70;71.10;;;;;;7386114;19;20010;-79
2023/04/10 12:36:41;;;;;;;8.18;2.95;;;17.60;71.20;;;;;;7386894;19;20097;-79
2023/04/10 12:39:24;;;;;;;9.43;3.70;;;17.90;71.30;;;;;;7388114;19;20007;-79
2023/04/10 12:41:54;;;;;;;10.73;4.28;;;18.00;71.30;;;;;;7410061;19;20011;-79
2023/04/10 12:44:22;;;;;;;8.27;3.65;;;18.20;71.10;;;;;;7383806;19;20014;-79
2023/04/10 12:46:51;;;;;;;6.55;3.88;;;18.20;71.00;;;;;;7382273;19;20007;-79
2023/04/10 12:49:25;;;;;;;6.53;3.72;;;18.20;70.80;;;;;;7383965;19;20023;-79
2023/04/10 12:51:54;;;;;;;14.05;5.85;;;18.30;71.00;;;;;;7386999;19;20006;-79
2023/04/10 12:54:30;;;;;;;8.25;3.42;;;18.50;71.00;;;;;;7388792;19;20007;-79
2023/04/10 12:57:03;;;;;;;4.75;3.20;;;18.30;71.90;;;;;;7407631;19;20007;-79
2023/04/10 12:59:33;;;;;;;8.13;4.03;;;18.50;72.00;;;;;;7388967;19;20051;-79
2023/04/10 13:02:02;;;;;;;8.57;5.45;;;18.50;71.30;;;;;;7388294;19;20014;-79
2023/04/10 13:04:33;;;;;;;11.45;5.57;;;18.70;71.30;;;;;;7387429;19;20027;-79
2023/04/10 13:07:02;;;;;;;8.73;3.58;;;18.80;71.30;;;;;;7387522;19;20003;-79